Time;durP1;ratioP1;P1;durP2;ratioP2;P2;SDS_P1;SDS_P2;PMS_P1;PMS_P2;Temp;Humidity;BMP_temperature;BMP_pressure;BME280_temperature;BME280_humidity;BME280_pressure;Samples;Min_cycle;Max_cycle;Signal;HPM_P1;HPM_P2
2022/01/31 00:00:48;;;;;;;12.63;4.15;;;;;;;8.61;44.17;95658.75;5013457;28;20022;-73
2022/01/31 00:03:14;;;;;;;8.48;3.40;;;;;;;8.73;44.00;95648.53;5031264;28;20458;-72
2022/01/31 00:05:39;;;;;;;11.98;3.88;;;;;;;8.78;43.73;95621.19;5013565;28;20057;-72
2022/01/31 00:08:05;;;;;;;15.38;4.00;;;;;;;8.87;43.76;95627.47;5033455;28;20025;-73
2022/01/31 00:10:31;;;;;;;13.75;4.13;;;;;;;8.87;43.54;95614.22;5030641;28;20040;-72
2022/01/31 00:13:11;;;;;;;14.15;3.88;;;;;;;8.69;43.60;95583.09;5030919;28;20102;-73
2022/01/31 00:15:40;;;;;;;15.13;3.70;;;;;;;8.77;43.79;95601.84;5012664;28;20401;-73
2022/01/31 00:18:06;;;;;;;14.98;3.70;;;;;;;8.81;43.54;95596.78;5030487;28;20025;-73
2022/01/31 00:20:32;;;;;;;9.23;3.20;;;;;;;8.93;43.80;95601.69;5013025;28;20051;-72
2022/01/31 00:22:57;;;;;;;14.32;3.88;;;;;;;9.07;43.59;95605.25;5015359;28;20022;-73
2022/01/31 00:25:23;;;;;;;10.68;3.95;;;;;;;9.02;43.17;95600.78;5030910;28;20028;-72
2022/01/31 00:27:48;;;;;;;10.98;3.47;;;;;;;9.13;43.34;95590.06;5051298;28;20038;-72
2022/01/31 00:30:15;;;;;;;12.35;4.38;;;;;;;9.33;42.85;95605.75;5050452;28;20461;-72
2022/01/31 00:32:40;;;;;;;8.15;3.50;;;;;;;9.38;42.60;95601.16;5051117;28;20465;-73
2022/01/31 00:35:06;;;;;;;8.95;3.72;;;;;;;9.28;42.71;95558.81;5051085;28;20033;-73
2022/01/31 00:37:32;;;;;;;8.57;3.05;;;;;;;9.41;42.20;95572.44;5022227;28;20033;-74
2022/01/31 00:39:57;;;;;;;7.30;2.97;;;;;;;9.37;42.24;95553.66;5030618;28;20034;-73
2022/01/31 00:42:25;;;;;;;10.55;3.20;;;;;;;9.67;42.22;95568.38;5030353;28;20678;-73
2022/01/31 00:44:56;;;;;;;10.13;3.53;;;;;;;9.58;42.05;95541.69;5013000;28;20017;-74
2022/01/31 00:47:24;;;;;;;11.82;3.45;;;;;;;9.74;42.34;95552.88;5030932;28;20429;-74
2022/01/31 00:49:53;;;;;;;8.05;3.20;;;;;;;9.83;41.80;95543.19;5030620;28;20028;-74
2022/01/31 00:52:19;;;;;;;10.43;3.50;;;;;;;9.80;41.81;95541.09;5013497;28;20028;-74
2022/01/31 00:54:45;;;;;;;12.68;3.75;;;;;;;9.88;42.03;95535.13;5024710;28;20025;-74
2022/01/31 00:57:11;;;;;;;9.63;3.97;;;;;;;9.84;41.98;95525.38;5050188;28;20087;-74
2022/01/31 00:59:36;;;;;;;9.82;3.85;;;;;;;9.70;41.92;95508.56;5050262;28;20037;-72
2022/01/31 01:02:02;;;;;;;13.60;4.25;;;;;;;9.61;41.32;95493.28;5050154;28;20045;-72
2022/01/31 01:04:27;;;;;;;8.55;3.30;;;;;;;9.59;41.91;95505.28;5050533;28;20064;-74
2022/01/31 01:06:53;;;;;;;10.82;3.17;;;;;;;9.43;41.85;95506.59;5045079;28;20041;-75
2022/01/31 01:09:18;;;;;;;10.93;3.15;;;;;;;9.54;42.14;95527.41;5012520;28;20024;-72
2022/01/31 01:11:43;;;;;;;13.27;3.67;;;;;;;9.11;42.40;95490.28;5030301;28;20084;-71
2022/01/31 01:14:09;;;;;;;13.25;3.80;;;;;;;8.42;44.04;95541.19;5030868;28;20056;-74
2022/01/31 01:16:34;;;;;;;11.93;3.58;;;;;;;8.03;44.96;95502.28;5012835;28;20029;-71
2022/01/31 01:19:00;;;;;;;14.82;3.33;;;;;;;8.36;44.31;95505.19;5030514;28;20083;-74
2022/01/31 01:21:25;;;;;;;9.23;3.33;;;;;;;7.52;47.05;95519.38;5031122;28;20025;-72
2022/01/31 01:23:51;;;;;;;11.15;3.47;;;;;;;7.45;47.11;95496.91;5020016;28;20018;-74
2022/01/31 01:26:16;;;;;;;14.60;4.43;;;;;;;6.99;48.06;95474.16;5012649;28;20371;-74
2022/01/31 01:28:44;;;;;;;12.25;3.50;;;;;;;6.22;50.57;95510.63;5015017;28;20029;-74
2022/01/31 01:31:10;;;;;;;10.35;3.95;;;;;;;6.50;50.57;95503.19;5034202;28;20544;-73
2022/01/31 01:33:39;;;;;;;13.93;3.28;;;;;;;6.14;51.55;95513.00;5034218;28;20029;-73
2022/01/31 01:36:06;;;;;;;9.40;3.95;;;;;;;5.86;52.47;95490.56;5034057;28;20017;-73
2022/01/31 01:38:33;;;;;;;13.23;3.58;;;;;;;5.83;52.70;95505.06;5040919;28;20096;-71
2022/01/31 01:41:00;;;;;;;13.02;3.88;;;;;;;5.77;53.10;95506.13;5033841;28;20018;-74
2022/01/31 01:43:28;;;;;;;15.68;4.38;;;;;;;5.87;53.20;95497.44;5033857;28;20036;-73
2022/01/31 01:45:55;;;;;;;7.90;3.17;;;;;;;5.87;53.01;95485.00;5034007;28;20422;-73
2022/01/31 01:48:21;;;;;;;10.60;3.78;;;;;;;6.39;51.83;95451.41;5034045;28;20021;-71
2022/01/31 01:50:47;;;;;;;12.38;3.90;;;;;;;6.72;50.56;95436.75;5033938;28;20025;-73
2022/01/31 01:53:13;;;;;;;7.93;3.35;;;;;;;6.34;51.87;95441.63;5040543;28;20075;-73
2022/01/31 01:55:39;;;;;;;13.57;3.92;;;;;;;7.20;49.96;95432.50;5015821;28;20029;-73
2022/01/31 01:58:14;;;;;;;9.20;3.40;;;;;;;7.34;50.03;95429.25;5015816;28;20061;-72
2022/01/31 02:00:59;;;;;;;12.73;3.70;;;;;;;6.89;49.80;95416.03;5015479;28;20021;-73
2022/01/31 02:03:27;;;;;;;13.88;3.72;;;;;;;7.35;48.92;95376.03;5033426;28;20473;-73
2022/01/31 02:05:53;;;;;;;8.07;4.15;;;;;;;8.17;47.52;95373.38;5015781;28;20545;-72
2022/01/31 02:08:19;;;;;;;12.15;3.75;;;;;;;8.43;46.77;95357.22;5039735;28;20100;-72
2022/01/31 02:10:45;;;;;;;15.30;4.30;;;;;;;8.62;46.46;95354.59;5033258;28;20424;-72
2022/01/31 02:13:11;;;;;;;14.80;3.97;;;;;;;8.44;46.05;95359.56;5033403;28;20022;-73
2022/01/31 02:15:37;;;;;;;8.50;3.70;;;;;;;8.25;46.43;95332.25;5015669;28;20059;-74
2022/01/31 02:18:04;;;;;;;10.95;4.43;;;;;;;8.38;46.20;95350.09;5033284;28;20033;-72
2022/01/31 02:20:29;;;;;;;9.15;3.95;;;;;;;7.79;47.01;95325.59;5033031;28;20113;-72
2022/01/31 02:22:55;;;;;;;12.50;3.65;;;;;;;7.19;49.78;95364.00;5021138;28;20108;-74
2022/01/31 02:25:21;;;;;;;13.35;4.38;;;;;;;7.41;49.47;95360.91;5015488;28;20043;-73
2022/01/31 02:27:46;;;;;;;9.10;3.78;;;;;;;7.11;50.09;95341.56;5014802;28;20197;-71
2022/01/31 02:30:14;;;;;;;13.70;4.05;;;;;;;7.39;49.22;95326.78;5014813;28;20044;-73
2022/01/31 02:32:40;;;;;;;9.40;3.80;;;;;;;7.95;48.21;95314.84;5033079;28;20028;-74
2022/01/31 02:35:07;;;;;;;11.35;4.28;;;;;;;8.02;47.57;95294.88;5015112;28;20525;-74
2022/01/31 02:37:33;;;;;;;10.35;3.63;;;;;;;7.95;48.12;95326.22;5037835;28;20029;-75
2022/01/31 02:39:58;;;;;;;10.95;4.35;;;;;;;8.20;47.07;95296.00;5032585;28;20017;-76
2022/01/31 02:42:24;;;;;;;13.00;4.05;;;;;;;8.44;46.72;95319.81;5034270;28;20036;-78
2022/01/31 02:44:49;;;;;;;17.23;4.70;;;;;;;8.40;47.11;95302.13;5034660;28;20080;-78
2022/01/31 02:47:21;;;;;;;11.55;3.88;;;;;;;7.99;47.30;95327.25;5016417;28;20022;-77
2022/01/31 02:49:52;;;;;;;;;;;;;;;7.11;49.87;95316.97;5034285;28;20025;-77
2022/01/31 02:52:18;;;;;;;7.68;3.78;;;;;;;7.69;48.70;95307.16;5038315;28;20390;-77
2022/01/31 02:54:44;;;;;;;20.58;4.75;;;;;;;7.60;48.48;95294.81;5033764;28;20026;-77
2022/01/31 02:57:10;;;;;;;13.52;3.90;;;;;;;7.65;48.50;95294.78;5015851;28;20166;-76
2022/01/31 02:59:35;;;;;;;10.98;3.45;;;;;;;8.06;48.00;95277.34;5033983;28;20104;-76
2022/01/31 03:02:01;;;;;;;10.13;3.65;;;;;;;8.24;47.27;95275.81;5033608;28;20029;-77
2022/01/31 03:04:26;;;;;;;14.43;4.32;;;;;;;8.17;46.92;95256.81;5034162;28;20022;-78
2022/01/31 03:06:53;;;;;;;11.13;4.07;;;;;;;8.52;47.21;95250.25;5034491;28;20030;-78
2022/01/31 03:09:19;;;;;;;13.85;4.30;;;;;;;8.97;46.14;95252.50;5037185;28;20028;-73
2022/01/31 03:11:45;;;;;;;13.10;4.68;;;;;;;8.78;45.78;95255.16;5030835;28;20017;-72
2022/01/31 03:14:11;;;;;;;14.80;4.25;;;;;;;8.41;46.66;95226.84;5032053;28;20029;-72
2022/01/31 03:16:40;;;;;;;8.10;3.40;;;;;;;8.68;45.88;95216.34;5012323;28;20037;-71
2022/01/31 03:19:09;;;;;;;12.57;4.55;;;;;;;8.27;46.07;95210.84;5031736;28;20033;-71
2022/01/31 03:21:35;;;;;;;11.45;3.72;;;;;;;8.56;46.41;95227.41;5032063;28;20017;-73
2022/01/31 03:24:00;;;;;;;10.13;3.85;;;;;;;7.24;49.47;95224.53;5017591;28;20458;-71
2022/01/31 03:26:25;;;;;;;9.18;3.58;;;;;;;6.87;50.51;95211.91;5032046;28;20462;-73
2022/01/31 03:28:53;;;;;;;13.82;4.43;;;;;;;6.09;53.03;95233.91;5031942;28;20104;-73
2022/01/31 03:31:19;;;;;;;12.80;3.97;;;;;;;6.13;54.37;95242.81;5031970;28;20026;-73
2022/01/31 03:33:48;;;;;;;10.65;4.60;;;;;;;7.01;51.21;95210.22;5031899;28;20120;-73
2022/01/31 03:36:14;;;;;;;13.75;5.30;;;;;;;6.74;51.74;95229.19;5031831;28;20028;-72
2022/01/31 03:38:43;;;;;;;14.00;4.65;;;;;;;6.55;52.19;95219.56;5034272;28;20025;-73
2022/01/31 03:41:09;;;;;;;12.98;4.55;;;;;;;7.07;50.54;95202.22;5013457;28;20036;-73
2022/01/31 03:43:35;;;;;;;11.27;4.18;;;;;;;7.99;49.56;95178.91;5013898;28;20039;-73
2022/01/31 03:46:00;;;;;;;13.23;4.20;;;;;;;7.98;48.72;95187.13;5031591;28;20470;-73
2022/01/31 03:48:28;;;;;;;14.15;4.22;;;;;;;8.08;48.46;95173.72;5012550;28;20614;-74
2022/01/31 03:50:55;;;;;;;17.90;4.43;;;;;;;8.61;47.68;95170.84;5030620;28;20109;-73
2022/01/31 03:53:21;;;;;;;10.23;4.00;;;;;;;8.84;46.65;95140.75;5033762;28;20096;-73
2022/01/31 03:55:46;;;;;;;14.32;4.57;;;;;;;9.19;46.67;95146.47;5031578;28;20108;-73
2022/01/31 03:58:12;;;;;;;13.20;4.50;;;;;;;9.33;45.68;95141.97;5013477;28;20547;-73
2022/01/31 04:00:37;;;;;;;15.52;4.50;;;;;;;8.53;46.20;95137.81;5030661;28;20024;-73
2022/01/31 04:03:03;;;;;;;14.57;4.20;;;;;;;8.65;46.55;95142.69;5031086;28;20124;-73
2022/01/31 04:05:29;;;;;;;8.77;4.03;;;;;;;8.48;46.59;95135.25;5031416;28;20025;-73
2022/01/31 04:07:54;;;;;;;10.27;4.00;;;;;;;8.65;46.39;95118.81;5014922;28;20033;-73
2022/01/31 04:10:19;;;;;;;12.63;4.38;;;;;;;8.42;47.13;95080.75;5012925;28;20017;-73
2022/01/31 04:12:45;;;;;;;13.50;4.25;;;;;;;8.87;46.32;95061.69;5060818;22;20401;-63
2022/01/31 04:15:10;;;;;;;10.15;3.97;;;;;;;9.09;46.33;95085.63;5032827;28;20067;-64
2022/01/31 04:17:37;;;;;;;16.05;4.03;;;;;;;8.20;46.83;95060.16;5050646;28;20469;-63
2022/01/31 04:20:05;;;;;;;13.13;3.83;;;;;;;8.83;46.65;95064.13;5032528;28;20025;-63
2022/01/31 04:22:33;;;;;;;8.48;4.00;;;;;;;8.52;46.31;94997.63;5032101;28;20028;-64
2022/01/31 04:25:02;;;;;;;11.68;3.92;;;;;;;8.96;45.77;95041.34;5050395;28;20055;-64
2022/01/31 04:27:32;;;;;;;11.13;3.40;;;;;;;8.99;45.59;95046.81;5050858;28;20492;-63
2022/01/31 04:29:58;;;;;;;9.45;3.80;;;;;;;8.79;45.53;94984.34;5032423;28;20380;-64
2022/01/31 04:32:23;;;;;;;13.05;3.97;;;;;;;8.95;45.64;94997.31;5050188;28;20025;-63
2022/01/31 04:34:49;;;;;;;8.98;3.28;;;;;;;8.84;45.46;94996.72;5032713;28;20114;-63
2022/01/31 04:37:14;;;;;;;12.10;3.50;;;;;;;8.83;45.84;95035.72;5032192;28;20118;-62
2022/01/31 04:39:40;;;;;;;13.75;3.97;;;;;;;7.90;47.35;94994.44;5031967;28;20027;-63
2022/01/31 04:42:06;;;;;;;15.35;3.88;;;;;;;8.65;46.23;95017.25;5050256;28;20060;-64
2022/01/31 04:44:32;;;;;;;15.48;4.07;;;;;;;8.41;46.64;95017.44;5032420;28;20024;-65
2022/01/31 04:46:57;;;;;;;14.70;3.83;;;;;;;8.78;46.30;95033.19;5050352;28;20476;-64
2022/01/31 04:49:23;;;;;;;11.55;3.53;;;;;;;8.58;46.00;94946.06;5050174;28;20433;-63
2022/01/31 04:51:48;;;;;;;10.10;3.40;;;;;;;9.16;45.79;94985.19;5032291;28;20431;-62
2022/01/31 04:54:14;;;;;;;15.50;4.10;;;;;;;9.13;45.51;94953.94;5049862;28;20059;-64
2022/01/31 04:56:42;;;;;;;10.40;3.58;;;;;;;9.32;45.26;94959.91;5050260;28;20100;-64
2022/01/31 04:59:07;;;;;;;16.83;3.90;;;;;;;9.33;45.08;94953.50;5049872;28;20036;-63
2022/01/31 05:01:33;;;;;;;11.73;4.13;;;;;;;9.16;45.46;94913.53;5050111;28;20021;-64
2022/01/31 05:03:58;;;;;;;15.20;3.17;;;;;;;7.91;47.60;94927.94;5053562;28;20025;-64
2022/01/31 05:06:35;;;;;;;13.25;3.88;;;;;;;8.39;47.52;94958.63;5054292;28;20025;-63
2022/01/31 05:09:00;;;;;;;10.57;4.18;;;;;;;7.32;50.37;94976.25;5053529;28;20017;-63
2022/01/31 05:11:26;;;;;;;9.68;3.60;;;;;;;7.49;49.50;94945.56;5053913;28;20035;-63
2022/01/31 05:13:51;;;;;;;9.13;4.68;;;;;;;6.24;53.93;94951.19;5054322;28;20031;-63
2022/01/31 05:16:17;;;;;;;10.18;4.10;;;;;;;6.72;52.51;94963.56;5054015;28;20108;-63
2022/01/31 05:18:44;;;;;;;17.42;5.18;;;;;;;6.03;55.22;94957.72;5053762;28;20021;-63
2022/01/31 05:21:10;;;;;;;14.68;4.38;;;;;;;6.47;54.36;94944.31;5035791;28;20078;-63
2022/01/31 05:23:36;;;;;;;13.20;5.13;;;;;;;6.09;54.90;94935.50;5053373;28;20021;-62
2022/01/31 05:26:02;;;;;;;13.27;4.80;;;;;;;7.10;52.62;94937.94;5053862;28;20025;-62
2022/01/31 05:28:27;;;;;;;10.55;5.32;;;;;;;6.15;55.75;94926.44;5053583;28;20434;-63
2022/01/31 05:30:53;;;;;;;9.52;4.65;;;;;;;5.98;55.60;94934.78;5035662;28;20031;-62
2022/01/31 05:33:18;;;;;;;9.35;4.95;;;;;;;5.44;57.50;94892.78;5053804;28;20029;-62
2022/01/31 05:35:45;;;;;;;12.70;4.75;;;;;;;5.19;57.81;94884.03;5035876;28;20162;-62
2022/01/31 05:38:11;;;;;;;14.00;4.75;;;;;;;5.42;58.55;94922.06;5053316;28;20079;-62
2022/01/31 05:40:36;;;;;;;9.35;4.93;;;;;;;5.05;59.21;94927.88;5035887;28;20485;-62
2022/01/31 05:43:02;;;;;;;11.13;4.72;;;;;;;5.06;59.79;94913.63;5035547;28;20029;-62
2022/01/31 05:45:28;;;;;;;9.90;4.30;;;;;;;5.36;58.97;94941.63;5035678;28;20440;-62
2022/01/31 05:47:53;;;;;;;5.72;3.92;;;;;;;4.83;61.26;94938.81;5035711;28;20021;-62
2022/01/31 05:50:19;;;;;;;12.05;5.43;;;;;;;4.94;60.44;94913.19;5035096;28;20425;-61
2022/01/31 05:52:45;;;;;;;15.52;6.47;;;;;;;5.40;59.12;94913.66;5035164;28;20036;-64
2022/01/31 05:55:12;;;;;;;11.18;4.63;;;;;;;4.88;61.44;94924.84;5053088;28;20100;-62
2022/01/31 05:57:37;;;;;;;7.15;4.57;;;;;;;4.75;61.99;94930.69;5053372;28;20028;-62
2022/01/31 06:00:07;;;;;;;8.45;5.07;;;;;;;4.65;62.49;94934.94;5052996;28;20036;-62
2022/01/31 06:02:32;;;;;;;7.32;4.50;;;;;;;5.43;60.91;94928.16;5052983;28;20029;-66
2022/01/31 06:04:58;;;;;;;12.68;5.80;;;;;;;6.13;58.67;94907.44;5053281;28;20029;-66
2022/01/31 06:07:23;;;;;;;13.38;6.18;;;;;;;5.65;59.47;94927.69;5053276;28;20017;-65
2022/01/31 06:09:48;;;;;;;9.18;5.38;;;;;;;4.84;61.12;94908.78;5052354;28;20467;-65
2022/01/31 06:12:15;;;;;;;5.28;3.85;;;;;;;4.69;61.98;94949.16;5034779;28;20060;-65
2022/01/31 06:14:41;;;;;;;10.82;5.40;;;;;;;5.17;60.36;94938.88;5035204;28;20017;-64
2022/01/31 06:17:06;;;;;;;6.28;4.32;;;;;;;4.51;60.95;94956.91;5052997;28;20083;-65
2022/01/31 06:19:31;;;;;;;7.57;2.92;;;;;;;4.02;61.01;94915.47;5052694;28;20405;-63
2022/01/31 06:21:57;;;;;;;6.05;3.60;;;;;;;4.83;59.05;94890.59;5034882;28;20091;-67
2022/01/31 06:24:22;;;;;;;6.55;4.05;;;;;;;4.67;58.93;94879.38;5052202;28;20064;-63
2022/01/31 06:26:49;;;;;;;11.13;3.72;;;;;;;4.59;59.71;94895.75;5034773;28;20031;-63
2022/01/31 06:29:14;;;;;;;10.05;4.28;;;;;;;4.60;59.48;94882.28;5034695;28;20056;-64
2022/01/31 06:31:40;;;;;;;10.00;3.08;;;;;;;4.35;58.60;94856.91;5052485;28;20056;-65
2022/01/31 06:34:05;;;;;;;10.73;3.30;;;;;;;4.82;57.14;94881.13;5052525;28;20056;-62
2022/01/31 06:36:31;;;;;;;8.38;3.08;;;;;;;5.24;55.89;94885.03;5052550;28;20021;-61
2022/01/31 06:38:56;;;;;;;4.43;2.10;;;;;;;4.68;57.02;94836.94;5038204;28;20108;-65
2022/01/31 06:41:23;;;;;;;10.30;3.13;;;;;;;5.14;55.50;94857.69;5052048;28;20028;-64
2022/01/31 06:43:50;;;;;;;8.80;3.03;;;;;;;5.22;55.25;94861.59;5052355;28;20025;-63
2022/01/31 06:46:16;;;;;;;4.13;2.45;;;;;;;4.86;57.01;94848.69;5052363;28;20025;-64
2022/01/31 06:48:41;;;;;;;7.38;2.58;;;;;;;4.65;55.79;94779.53;5051982;28;20393;-63
2022/01/31 06:51:07;;;;;;;6.97;2.05;;;;;;;4.79;56.36;94808.66;5034008;28;20128;-63
2022/01/31 06:53:33;;;;;;;6.85;2.15;;;;;;;4.71;56.37;94806.63;5051555;28;20029;-62
2022/01/31 06:55:59;;;;;;;5.10;2.25;;;;;;;5.42;54.25;94829.75;5051843;28;20029;-62
2022/01/31 06:58:25;;;;;;;11.60;3.03;;;;;;;5.81;57.96;94796.38;5049957;28;20036;-66
2022/01/31 07:00:51;;;;;;;10.50;3.28;;;;;;;5.00;53.58;94672.22;5050858;28;20072;-64
2022/01/31 07:03:17;;;;;;;10.48;3.22;;;;;;;5.68;54.21;94822.38;5052088;28;20108;-64
2022/01/31 07:05:43;;;;;;;13.85;3.42;;;;;;;5.32;55.34;94818.50;5051982;28;20104;-63
2022/01/31 07:08:10;;;;;;;8.77;2.72;;;;;;;5.26;55.36;94809.84;5051560;28;20028;-61
2022/01/31 07:10:37;;;;;;;8.45;2.97;;;;;;;5.37;54.30;94765.72;5051306;28;20029;-61
2022/01/31 07:13:11;;;;;;;9.93;3.20;;;;;;;6.19;53.31;94795.41;5033886;28;20025;-63
2022/01/31 07:15:36;;;;;;;11.07;2.95;;;;;;;5.95;54.03;94789.38;5051876;28;20025;-62
2022/01/31 07:18:02;;;;;;;7.15;1.83;;;;;;;4.85;57.11;94793.59;5033747;28;20152;-62
2022/01/31 07:20:39;;;;;;;13.40;3.40;;;;;;;6.13;54.86;94780.69;5033429;28;20032;-62
2022/01/31 07:23:13;;;;;;;10.65;2.90;;;;;;;5.96;55.12;94780.38;5051475;28;20052;-63
2022/01/31 07:25:39;;;;;;;5.72;2.60;;;;;;;5.63;55.71;94740.66;5051142;28;20060;-63
2022/01/31 07:28:09;;;;;;;9.13;3.17;;;;;;;5.48;56.27;94781.16;5051664;28;20034;-64
2022/01/31 07:30:37;;;;;;;9.38;3.10;;;;;;;5.90;56.08;94769.06;5033378;28;20025;-64
2022/01/31 07:33:02;;;;;;;6.40;2.10;;;;;;;5.56;56.85;94748.09;5051367;28;20095;-64
2022/01/31 07:35:28;;;;;;;5.82;2.85;;;;;;;5.66;56.54;94705.75;5051632;28;20154;-64
2022/01/31 07:37:53;;;;;;;4.18;2.53;;;;;;;5.47;57.39;94711.00;5033648;28;20477;-64
2022/01/31 07:40:19;;;;;;;8.85;2.15;;;;;;;5.70;57.23;94727.09;5050305;28;20483;-64
2022/01/31 07:42:44;;;;;;;12.98;3.20;;;;;;;5.83;56.04;94668.31;5051547;28;20516;-65
2022/01/31 07:45:10;;;;;;;7.00;2.63;;;;;;;5.91;56.55;94693.31;5051423;28;20456;-64
2022/01/31 07:47:35;;;;;;;10.95;2.80;;;;;;;6.25;55.81;94693.91;5033462;28;20021;-64
2022/01/31 07:50:02;;;;;;;11.85;3.55;;;;;;;6.47;54.85;94674.81;5050550;28;20108;-64
2022/01/31 07:52:28;;;;;;;7.00;2.80;;;;;;;6.25;55.11;94640.31;5051225;28;20511;-64
2022/01/31 07:54:54;;;;;;;7.82;2.65;;;;;;;6.71;54.01;94658.84;5050646;28;20029;-64
2022/01/31 07:57:20;;;;;;;7.47;2.75;;;;;;;6.60;54.08;94630.22;5051049;28;20116;-64
2022/01/31 07:59:45;;;;;;;9.93;2.38;;;;;;;5.98;56.16;94644.38;5050793;28;20021;-65
2022/01/31 08:02:11;;;;;;;8.45;2.95;;;;;;;6.78;54.95;94677.72;5050707;28;20047;-65
2022/01/31 08:04:36;;;;;;;8.05;2.65;;;;;;;6.63;54.41;94643.63;5050768;28;20772;-64
2022/01/31 08:07:02;;;;;;;8.20;2.90;;;;;;;6.54;54.48;94624.22;5051162;28;20029;-64
2022/01/31 08:09:27;;;;;;;6.50;2.75;;;;;;;6.32;55.04;94616.16;5050297;28;20520;-66
2022/01/31 08:11:53;;;;;;;5.40;2.63;;;;;;;6.87;53.95;94608.34;5050559;28;20056;-65
2022/01/31 08:14:19;;;;;;;5.93;2.28;;;;;;;5.86;56.39;94579.88;5033151;28;20102;-65
2022/01/31 08:16:45;;;;;;;10.75;2.80;;;;;;;6.86;53.63;94589.06;5050892;28;20033;-66
2022/01/31 08:19:11;;;;;;;5.72;2.42;;;;;;;6.87;53.98;94619.69;5050665;28;20650;-65
2022/01/31 08:21:37;;;;;;;6.78;2.53;;;;;;;6.60;54.09;94599.28;5032823;28;20049;-65
2022/01/31 08:24:03;;;;;;;4.07;1.60;;;;;;;6.57;55.39;94636.88;5050394;28;20465;-64
2022/01/31 08:26:29;;;;;;;4.18;2.33;;;;;;;5.69;58.05;94606.78;5050437;28;20467;-65
2022/01/31 08:29:05;;;;;;;7.40;2.30;;;;;;;5.88;57.04;94578.50;5050477;28;20021;-64
2022/01/31 08:31:35;;;;;;;5.13;2.50;;;;;;;5.77;58.36;94569.19;5032628;28;20035;-65
2022/01/31 08:35:48;;;;;;;4.40;2.25;;;;;;;6.32;57.17;94624.88;5050538;28;20090;-64
2022/01/31 08:36:49;;;;;;;7.30;2.80;;;;;;;6.69;57.24;94646.97;5049303;28;20223;-64
2022/01/31 08:39:18;;;;;;;6.43;2.78;;;;;;;6.19;58.90;94636.97;5049701;28;20105;-67
2022/01/31 08:41:45;;;;;;;6.65;3.35;;;;;;;6.22;59.56;94641.66;5032272;28;20481;-65
2022/01/31 08:44:13;;;;;;;4.85;2.30;;;;;;;4.95;63.17;94533.38;5050706;28;20045;-65
2022/01/31 08:46:40;;;;;;;4.55;3.08;;;;;;;5.38;63.64;94633.59;5050479;28;20033;-66
2022/01/31 08:49:09;;;;;;;1.63;1.50;;;;;;;5.29;65.51;94639.75;5050303;28;20074;-66
2022/01/31 08:51:37;;;;;;;3.20;2.47;;;;;;;5.21;64.90;94615.56;5045684;28;20030;-64
2022/01/31 08:54:05;;;;;;;4.53;2.50;;;;;;;5.70;63.77;94626.81;5049994;28;20017;-66
2022/01/31 08:56:35;;;;;;;4.43;2.40;;;;;;;5.74;63.43;94594.31;5049861;28;20029;-67
2022/01/31 08:59:02;;;;;;;3.00;1.98;;;;;;;5.42;64.83;94612.69;5050156;28;20021;-66
2022/01/31 09:01:27;;;;;;;5.78;3.45;;;;;;;5.19;65.09;94641.44;5050158;28;20024;-66
2022/01/31 09:06:20;;;;;;;5.95;3.97;;;;;;;5.85;65.60;94607.34;5050368;28;20025;-67
2022/01/31 09:08:46;;;;;;;6.10;3.30;;;;;;;5.46;66.65;94622.38;5049696;28;20029;-67
2022/01/31 09:11:12;;;;;;;5.65;3.00;;;;;;;5.07;66.82;94583.06;5049834;28;20024;-66
2022/01/31 09:13:38;;;;;;;7.65;2.67;;;;;;;5.07;66.25;94613.94;5050286;28;20033;-66
2022/01/31 09:16:04;;;;;;;3.50;2.75;;;;;;;5.37;66.45;94621.44;5032177;28;20013;-66
2022/01/31 09:18:30;;;;;;;5.82;3.88;;;;;;;5.46;66.21;94629.50;5031611;28;20032;-65
2022/01/31 09:20:57;;;;;;;5.97;3.72;;;;;;;5.58;65.01;94581.59;5050045;28;20074;-66
2022/01/31 09:23:23;;;;;;;4.72;3.45;;;;;;;5.74;65.76;94589.03;5050267;28;20027;-66
2022/01/31 09:25:48;;;;;;;5.03;2.70;;;;;;;5.38;66.60;94591.38;5049769;28;20112;-65
2022/01/31 09:28:15;;;;;;;3.97;2.20;;;;;;;5.03;66.53;94558.34;5050230;28;20036;-65
2022/01/31 09:30:41;;;;;;;4.03;2.25;;;;;;;5.06;66.95;94623.66;5049326;28;20021;-65
2022/01/31 09:33:07;;;;;;;4.05;2.72;;;;;;;5.94;64.39;94577.41;5032058;28;20025;-65
2022/01/31 09:35:33;;;;;;;4.85;2.13;;;;;;;5.58;65.23;94598.25;5050069;28;20031;-65
2022/01/31 09:38:00;;;;;;;4.57;2.42;;;;;;;5.01;66.28;94525.41;5032081;28;20473;-66
2022/01/31 09:40:26;;;;;;;6.60;2.97;;;;;;;5.64;66.38;94581.25;5037030;28;20095;-65
2022/01/31 09:48:32;;;;;;;7.43;3.10;;;;;;;5.34;67.28;94589.59;5050308;28;20051;-66
2022/01/31 09:51:06;;;;;;;5.57;3.42;;;;;;;5.42;68.21;94579.16;5035571;28;20055;-65
2022/01/31 09:53:38;;;;;;;8.77;2.95;;;;;;;5.00;68.66;94605.56;5053503;28;20047;-66
2022/01/31 09:56:07;;;;;;;;;;;;;;;5.50;67.45;94606.78;5053628;28;20325;-65
2022/01/31 09:58:32;;;;;;;4.88;2.58;;;;;;;5.12;68.60;94592.78;5053118;28;19912;-66
2022/01/31 10:01:20;;;;;;;3.67;2.70;;;;;;;5.45;68.78;94612.91;5052788;28;20237;-65
2022/01/31 10:03:50;;;;;;;4.80;2.22;;;;;;;5.08;68.75;94566.19;5035360;28;20033;-66
2022/01/31 10:06:28;;;;;;;3.55;3.17;;;;;;;6.08;67.67;94609.13;5053044;28;20021;-65
2022/01/31 10:09:07;;;;;;;3.00;2.58;;;;;;;5.51;67.92;94626.81;5052174;28;20025;-65
2022/01/31 10:12:05;;;;;;;10.55;2.42;;;;;;;5.42;68.76;94602.91;5065331;22;20096;-70
2022/01/31 10:17:30;;;;;;;3.37;1.87;;;;;;;5.07;69.51;94606.03;5053322;28;20520;-70
2022/01/31 10:19:58;;;;;;;3.58;2.20;;;;;;;5.20;69.36;94610.59;5034736;28;20025;-71
2022/01/31 10:22:26;;;;;;;8.20;2.45;;;;;;;5.70;67.39;94597.81;5034843;28;20454;-70
2022/01/31 10:24:54;;;;;;;1.85;1.65;;;;;;;5.45;67.83;94622.66;5052392;28;20045;-71
2022/01/31 10:27:23;;;;;;;2.22;1.88;;;;;;;5.72;66.71;94609.63;5034518;28;20393;-69
2022/01/31 10:29:50;;;;;;;2.33;2.13;;;;;;;6.00;67.63;94607.16;5052827;28;20453;-70
2022/01/31 10:32:23;;;;;;;2.13;1.92;;;;;;;5.86;66.27;94601.78;5052604;28;20028;-71
2022/01/31 10:34:52;;;;;;;1.83;1.50;;;;;;;5.22;67.10;94609.25;5052819;28;20112;-68
2022/01/31 10:37:21;;;;;;;2.20;1.67;;;;;;;5.90;65.73;94620.47;5034670;28;20473;-67
2022/01/31 10:53:10;;;;;;;1.85;1.20;;;;;;;5.28;68.46;94593.38;5052337;28;20397;-69
2022/01/31 10:55:35;;;;;;;1.20;1.10;;;;;;;5.08;69.01;94610.22;5051582;28;20025;-68
2022/01/31 10:58:07;;;;;;;1.35;1.10;;;;;;;5.09;69.06;94594.13;5034063;28;20032;-67
2022/01/31 11:00:38;;;;;;;1.10;1.00;;;;;;;5.36;69.12;94609.31;5050884;28;20025;-68
2022/01/31 11:03:33;;;;;;;0.75;0.68;;;;;;;4.68;71.85;94605.09;5034301;28;20095;-69
2022/01/31 11:06:09;;;;;;;1.00;0.90;;;;;;;5.09;70.69;94609.94;5021795;28;20057;-69
2022/01/31 11:08:34;;;;;;;0.77;0.60;;;;;;;4.52;72.39;94613.44;5052011;28;20104;-69
2022/01/31 11:11:00;;;;;;;0.98;0.82;;;;;;;4.40;72.01;94624.34;5051356;28;20545;-69
2022/01/31 11:13:27;;;;;;;1.98;0.73;;;;;;;4.37;72.55;94593.31;5052024;28;20028;-68
2022/01/31 11:15:53;;;;;;;1.10;1.00;;;;;;;4.82;71.27;94623.69;5051977;28;20032;-70
2022/01/31 11:18:21;;;;;;;1.27;1.17;;;;;;;5.04;71.19;94620.53;5033967;28;20029;-69
2022/01/31 11:20:49;;;;;;;1.30;1.00;;;;;;;4.98;70.28;94576.06;5034399;28;20060;-70
2022/01/31 11:23:18;;;;;;;1.17;1.08;;;;;;;5.31;68.30;94574.31;5034187;28;20112;-70
2022/01/31 11:25:50;;;;;;;2.13;1.02;;;;;;;4.64;69.65;94572.47;5051555;28;20017;-70
2022/01/31 11:28:17;;;;;;;0.65;0.65;;;;;;;5.14;69.93;94609.88;5051975;28;20699;-70
2022/01/31 11:30:43;;;;;;;1.40;1.02;;;;;;;5.43;68.36;94574.72;5051480;28;20024;-70
2022/01/31 11:33:10;;;;;;;0.88;0.70;;;;;;;4.95;68.94;94620.34;5052042;28;20109;-70
2022/01/31 11:35:35;;;;;;;0.52;0.52;;;;;;;5.49;67.94;94592.03;5051712;28;20610;-70
2022/01/31 11:38:02;;;;;;;0.63;0.63;;;;;;;5.47;66.97;94580.97;5051244;28;20036;-70
2022/01/31 11:40:28;;;;;;;2.60;0.68;;;;;;;5.71;66.92;94604.63;5050607;28;20025;-70
2022/01/31 11:42:54;;;;;;;1.08;0.98;;;;;;;5.85;65.72;94563.28;5051572;28;20048;-71
2022/01/31 11:45:21;;;;;;;1.25;0.70;;;;;;;6.15;65.39;94593.72;5050896;28;20488;-70
2022/01/31 11:47:49;;;;;;;0.60;0.38;;;;;;;6.01;64.63;94627.19;5051314;28;20085;-71
2022/01/31 11:50:15;;;;;;;1.63;0.50;;;;;;;5.95;64.54;94609.88;5050850;28;20032;-70
2022/01/31 11:52:47;;;;;;;0.28;0.28;;;;;;;5.93;64.10;94583.75;5051164;28;20583;-71
2022/01/31 11:55:17;;;;;;;0.30;0.30;;;;;;;5.58;64.92;94584.25;5051019;28;20480;-70
2022/01/31 11:57:49;;;;;;;1.85;0.40;;;;;;;5.88;64.82;94598.84;5050984;28;20056;-71
2022/01/31 12:00:16;;;;;;;0.45;0.35;;;;;;;5.84;64.11;94619.00;5050598;28;20032;-71
2022/01/31 12:02:47;;;;;;;0.77;0.52;;;;;;;5.66;63.15;94592.31;5051152;28;20025;-69